Edith Kirk — 2DST9 — position and weather

sailwx.info

Track history (hours):
 
Tides and Currents Weather Stations Pressure Air Temp Water Temp Dewpoint Dewpoint Depression Visibility Wind Speed Wind Dir Waves Ship Positions

Edith Kirk

Last reported at 2015-Jan-22 19:29 UTC. Time now 2015-Jan-30 02:39 UTC.
Position N 39°39' W 029°20'.

Length 183 m; draft 10.8 m.

Type: Tanker. MMSI: 235081745.

Date/timePositionNaut miles runAvg speedWind from/ knotsBaromVisibWave heightAir tempDewpointWater temp
2015-Jan-22 19:29N 39°39' W 029°20'1112.4
2015-Jan-22 18:33N 39°44' W 029°06'1212.3
2015-Jan-22 17:33N 39°49' W 028°52'1212.1
2015-Jan-22 16:33N 39°55' W 028°38'1712.3
2015-Jan-22 15:12N 40°01' W 028°18'  
2015-Jan-17 22:16N 50°25' W 000°34'3312.1
2015-Jan-17 19:30N 50°33' E 000°17'1010.8
2015-Jan-17 18:33N 50°36' E 000°32'1110.7
2015-Jan-17 17:33N 50°42' E 000°46'1211.8
2015-Jan-17 16:33N 50°49' E 001°02'1412.9
2015-Jan-17 15:27N 50°59' E 001°18'1212.9
2015-Jan-17 14:33N 51°06' E 001°32'1212.2
2015-Jan-17 13:33N 51°14' E 001°46'1111.4
2015-Jan-17 12:33N 51°23' E 001°57'1110.6
2015-Jan-17 11:30N 51°21' E 002°15'1010.9
2015-Jan-17 10:33N 51°23' E 002°31'10 9.6
2015-Jan-17 09:33N 51°22' E 002°47'1211.1
2015-Jan-17 08:30N 51°24' E 003°05'1111.4
2015-Jan-17 07:33N 51°25' E 003°22'1110.9
2015-Jan-17 06:34N 51°26' E 003°39'1110.5
2015-Jan-17 05:33N 51°22' E 003°54'9 8.5
2015-Jan-17 04:33N 51°22' E 004°08'6 5.9
2015-Jan-17 03:33N 51°21' E 004°17'0 0.0
2015-Jan-17 02:34N 51°21' E 004°17'1 0.6
2015-Jan-17 01:29N 51°20' E 004°18'0 0.0
2015-Jan-16 23:33N 51°20' E 004°18'0 0.0
2015-Jan-15 13:22N 51°20' E 004°18'0 0.6
2015-Jan-15 12:34N 51°21' E 004°18'0 0.4
2015-Jan-15 11:34N 51°21' E 004°17'0 0.1
2015-Jan-15 10:33N 51°21' E 004°17'5 4.9
2015-Jan-15 09:33N 51°23' E 004°10'8 8.1
2015-Jan-15 08:34N 51°24' E 003°57'9 9.4
2015-Jan-15 07:33N 51°25' E 003°42'8 8.1
2015-Jan-15 06:33N 51°25' E 003°29'1010.3
2015-Jan-15 05:33N 51°24' E 003°13'1211.9
2015-Jan-15 04:33N 51°22' E 002°54'10 9.7
2015-Jan-15 03:33N 51°24' E 002°39'0 0.4
2015-Jan-15 02:32N 51°24' E 002°38'0 0.0
2015-Jan-15 01:29N 51°24' E 002°38'0 0.0
2015-Jan-15 00:32N 51°24' E 002°38'0 0.0
2015-Jan-14 23:32N 51°24' E 002°38'0 0.0
2015-Jan-14 22:32N 51°24' E 002°38'0 0.0
2015-Jan-14 21:32N 51°24' E 002°38'0 0.0
2015-Jan-14 20:32N 51°24' E 002°38'0 0.0
2015-Jan-14 19:32N 51°24' E 002°38'0 0.0
2015-Jan-14 18:32N 51°24' E 002°38'0 0.1
2015-Jan-14 17:32N 51°24' E 002°39'0 0.0
2015-Jan-14 16:32N 51°24' E 002°39'0 0.0
2015-Jan-14 15:32N 51°24' E 002°39'0 0.1
2015-Jan-14 14:32N 51°24' E 002°39'0 0.0
2015-Jan-14 13:26N 51°24' E 002°39'0 0.0
2015-Jan-14 12:32N 51°24' E 002°39'0 0.0
2015-Jan-14 11:23N 51°24' E 002°39'0 0.0
2015-Jan-14 10:29N 51°24' E 002°39'0 0.1
2015-Jan-14 09:32N 51°24' E 002°39'0 0.0
2015-Jan-14 08:32N 51°24' E 002°39'0 0.0
2015-Jan-14 07:32N 51°24' E 002°39'0 0.0
2015-Jan-14 06:32N 51°24' E 002°39'1 0.7
2015-Jan-14 05:32N 51°24' E 002°40'0 0.4
2015-Jan-14 04:33N 51°24' E 002°40'5 4.8
2015-Jan-14 03:33N 51°22' E 002°33'1211.0
2015-Jan-14 02:29N 51°19' E 002°15'1011.1
2015-Jan-14 01:33N 51°23' E 001°60'9 9.2
2015-Jan-14 00:34N 51°31' E 002°04'1110.5
2015-Jan-13 23:34N 51°39' E 002°16'141 7.9
2015-Jan-13 05:33N 53°46' E 000°36'1 1.0
2015-Jan-13 04:20N 53°46' E 000°34'0 0.0
2015-Jan-13 03:26N 53°46' E 000°34'0 0.0
2015-Jan-13 02:32N 53°46' E 000°34'0 0.0
2015-Jan-13 01:29N 53°46' E 000°34'0 0.0
2015-Jan-13 00:32N 53°46' E 000°34'0 0.1
2015-Jan-12 23:20N 53°46' E 000°34'0 0.1
2015-Jan-12 22:26N 53°46' E 000°34'0 0.1
2015-Jan-12 21:26N 53°46' E 000°34'0 0.0
2015-Jan-12 20:29N 53°46' E 000°34'0 0.0
2015-Jan-12 19:29N 53°46' E 000°34'  
Track history (hours):
 
Tides and Currents Weather Stations Pressure Air Temp Water Temp Dewpoint Dewpoint Depression Visibility Wind Speed Wind Dir Waves Ship Positions

Edith Kirk

Last reported at 2015-Jan-22 19:29 UTC. Time now 2015-Jan-30 02:39 UTC.
Position N 39°39' W 029°20'.

Length 183 m; draft 10.8 m.

Type: Tanker. MMSI: 235081745.

Date/timePositionNaut miles runAvg speedWind from/ knotsBaromVisibWave heightAir tempDewpointWater temp
2015-Jan-22 19:29N 39°39' W 029°20'1112.4
2015-Jan-22 18:33N 39°44' W 029°06'1212.3
2015-Jan-22 17:33N 39°49' W 028°52'1212.1
2015-Jan-22 16:33N 39°55' W 028°38'1712.3
2015-Jan-22 15:12N 40°01' W 028°18'  
2015-Jan-17 22:16N 50°25' W 000°34'3312.1
2015-Jan-17 19:30N 50°33' E 000°17'1010.8
2015-Jan-17 18:33N 50°36' E 000°32'1110.7
2015-Jan-17 17:33N 50°42' E 000°46'1211.8
2015-Jan-17 16:33N 50°49' E 001°02'1412.9
2015-Jan-17 15:27N 50°59' E 001°18'1212.9
2015-Jan-17 14:33N 51°06' E 001°32'1212.2
2015-Jan-17 13:33N 51°14' E 001°46'1111.4
2015-Jan-17 12:33N 51°23' E 001°57'1110.6
2015-Jan-17 11:30N 51°21' E 002°15'1010.9
2015-Jan-17 10:33N 51°23' E 002°31'10 9.6
2015-Jan-17 09:33N 51°22' E 002°47'1211.1
2015-Jan-17 08:30N 51°24' E 003°05'1111.4
2015-Jan-17 07:33N 51°25' E 003°22'1110.9
2015-Jan-17 06:34N 51°26' E 003°39'1110.5
2015-Jan-17 05:33N 51°22' E 003°54'9 8.5
2015-Jan-17 04:33N 51°22' E 004°08'6 5.9
2015-Jan-17 03:33N 51°21' E 004°17'0 0.0
2015-Jan-17 02:34N 51°21' E 004°17'1 0.6
2015-Jan-17 01:29N 51°20' E 004°18'0 0.0
2015-Jan-16 23:33N 51°20' E 004°18'0 0.0
2015-Jan-15 13:22N 51°20' E 004°18'0 0.6
2015-Jan-15 12:34N 51°21' E 004°18'0 0.4
2015-Jan-15 11:34N 51°21' E 004°17'0 0.1
2015-Jan-15 10:33N 51°21' E 004°17'5 4.9
2015-Jan-15 09:33N 51°23' E 004°10'8 8.1
2015-Jan-15 08:34N 51°24' E 003°57'9 9.4
2015-Jan-15 07:33N 51°25' E 003°42'8 8.1
2015-Jan-15 06:33N 51°25' E 003°29'1010.3
2015-Jan-15 05:33N 51°24' E 003°13'1211.9
2015-Jan-15 04:33N 51°22' E 002°54'10 9.7
2015-Jan-15 03:33N 51°24' E 002°39'0 0.4
2015-Jan-15 02:32N 51°24' E 002°38'0 0.0
2015-Jan-15 01:29N 51°24' E 002°38'0 0.0
2015-Jan-15 00:32N 51°24' E 002°38'0 0.0
2015-Jan-14 23:32N 51°24' E 002°38'0 0.0
2015-Jan-14 22:32N 51°24' E 002°38'0 0.0
2015-Jan-14 21:32N 51°24' E 002°38'0 0.0
2015-Jan-14 20:32N 51°24' E 002°38'0 0.0
2015-Jan-14 19:32N 51°24' E 002°38'0 0.0
2015-Jan-14 18:32N 51°24' E 002°38'0 0.1
2015-Jan-14 17:32N 51°24' E 002°39'0 0.0
2015-Jan-14 16:32N 51°24' E 002°39'0 0.0
2015-Jan-14 15:32N 51°24' E 002°39'0 0.1
2015-Jan-14 14:32N 51°24' E 002°39'0 0.0
2015-Jan-14 13:26N 51°24' E 002°39'0 0.0
2015-Jan-14 12:32N 51°24' E 002°39'0 0.0
2015-Jan-14 11:23N 51°24' E 002°39'0 0.0
2015-Jan-14 10:29N 51°24' E 002°39'0 0.1
2015-Jan-14 09:32N 51°24' E 002°39'0 0.0
2015-Jan-14 08:32N 51°24' E 002°39'0 0.0
2015-Jan-14 07:32N 51°24' E 002°39'0 0.0
2015-Jan-14 06:32N 51°24' E 002°39'1 0.7
2015-Jan-14 05:32N 51°24' E 002°40'0 0.4
2015-Jan-14 04:33N 51°24' E 002°40'5 4.8
2015-Jan-14 03:33N 51°22' E 002°33'1211.0
2015-Jan-14 02:29N 51°19' E 002°15'1011.1
2015-Jan-14 01:33N 51°23' E 001°60'9 9.2
2015-Jan-14 00:34N 51°31' E 002°04'1110.5
2015-Jan-13 23:34N 51°39' E 002°16'141 7.9
2015-Jan-13 05:33N 53°46' E 000°36'1 1.0
2015-Jan-13 04:20N 53°46' E 000°34'0 0.0
2015-Jan-13 03:26N 53°46' E 000°34'0 0.0
2015-Jan-13 02:32N 53°46' E 000°34'0 0.0
2015-Jan-13 01:29N 53°46' E 000°34'0 0.0
2015-Jan-13 00:32N 53°46' E 000°34'0 0.1
2015-Jan-12 23:20N 53°46' E 000°34'0 0.1
2015-Jan-12 22:26N 53°46' E 000°34'0 0.1
2015-Jan-12 21:26N 53°46' E 000°34'0 0.0
2015-Jan-12 20:29N 53°46' E 000°34'0 0.0
2015-Jan-12 19:29N 53°46' E 000°34'  

Dump ship's entire track history